createdAt,value
2017-03-15T00:00:07.767Z,17.80
2017-03-15T00:01:19.513Z,15.38
2017-03-15T00:02:24.659Z,16.15
2017-03-15T00:03:31.011Z,15.07
2017-03-15T00:04:35.859Z,27.75
2017-03-15T00:05:40.590Z,13.88
2017-03-15T00:06:46.204Z,16.12
2017-03-15T00:07:51.938Z,16.52
2017-03-15T00:08:57.558Z,17.83
2017-03-15T00:10:02.908Z,18.15
2017-03-15T00:11:08.377Z,16.58
2017-03-15T00:12:13.142Z,15.23
2017-03-15T00:13:18.687Z,14.00
2017-03-15T00:14:24.267Z,14.50
2017-03-15T00:15:29.706Z,15.42
2017-03-15T00:16:34.475Z,17.08
2017-03-15T00:17:39.115Z,16.58
2017-03-15T00:18:44.618Z,16.35
2017-03-15T00:19:51.209Z,15.93
2017-03-15T00:20:55.861Z,14.57
2017-03-15T00:22:01.418Z,16.33
2017-03-15T00:23:06.160Z,15.53
2017-03-15T00:24:11.757Z,15.92
2017-03-15T00:25:16.395Z,15.05
2017-03-15T00:26:22.048Z,15.78
2017-03-15T00:27:28.214Z,15.92
2017-03-15T00:28:32.957Z,15.72
2017-03-15T00:29:38.374Z,17.22
2017-03-15T00:30:43.290Z,15.32
2017-03-15T00:31:48.778Z,15.55
2017-03-15T00:32:54.366Z,16.27
2017-03-15T00:33:59.907Z,15.62
2017-03-15T00:35:05.337Z,15.15
2017-03-15T00:36:10.954Z,15.70
2017-03-15T00:37:16.541Z,16.85
2017-03-15T00:38:21.966Z,15.75
2017-03-15T00:39:27.599Z,16.38
2017-03-15T00:40:32.414Z,16.18
2017-03-15T00:41:37.845Z,14.78
2017-03-15T00:42:42.632Z,15.88
2017-03-15T00:43:48.208Z,17.02
2017-03-15T00:44:53.008Z,15.17
2017-03-15T00:45:59.427Z,16.40
2017-03-15T00:47:04.210Z,15.08
2017-03-15T00:48:09.671Z,17.58
2017-03-15T00:49:15.213Z,16.42
2017-03-15T00:50:20.772Z,16.95
2017-03-15T00:51:25.446Z,21.38
2017-03-15T00:52:31.156Z,22.73
2017-03-15T00:53:37.510Z,21.20
2017-03-15T00:54:43.058Z,27.27
2017-03-15T00:55:47.779Z,21.25
2017-03-15T00:56:53.269Z,22.25
2017-03-15T00:57:57.969Z,23.07
2017-03-15T00:59:02.636Z,29.43
2017-03-15T01:00:07.438Z,23.10
2017-03-15T01:01:13.810Z,30.12
2017-03-15T01:02:18.682Z,19.38
2017-03-15T01:03:24.328Z,17.20
2017-03-15T01:04:29.842Z,18.23
2017-03-15T01:05:34.481Z,17.47
2017-03-15T01:06:39.195Z,16.62
2017-03-15T01:07:45.422Z,16.58
2017-03-15T01:08:51.097Z,16.78
2017-03-15T01:09:55.867Z,17.48
2017-03-15T01:11:02.248Z,15.33
2017-03-15T01:12:07.077Z,15.55
2017-03-15T01:13:18.290Z,15.50
2017-03-15T01:14:23.674Z,16.02
2017-03-15T01:15:29.218Z,15.78
2017-03-15T01:16:35.566Z,16.00
2017-03-15T01:17:41.177Z,14.32
2017-03-15T01:18:46.030Z,15.02
2017-03-15T01:19:51.592Z,15.15
2017-03-15T01:20:56.924Z,15.88
2017-03-15T01:22:01.733Z,15.25
2017-03-15T01:23:07.168Z,14.15
2017-03-15T01:24:12.033Z,15.68
2017-03-15T01:25:18.338Z,15.35
2017-03-15T01:26:23.187Z,15.35
2017-03-15T01:27:28.738Z,14.73
2017-03-15T01:28:33.581Z,15.73
2017-03-15T01:29:39.055Z,16.35
2017-03-15T01:30:45.311Z,16.58
2017-03-15T01:31:50.898Z,14.18
2017-03-15T01:32:55.663Z,13.83
2017-03-15T01:34:02.015Z,13.62
2017-03-15T01:35:07.430Z,13.48
2017-03-15T01:36:12.447Z,16.27
2017-03-15T01:37:17.855Z,16.75
2017-03-15T01:38:22.595Z,15.42
2017-03-15T01:39:27.442Z,14.12
2017-03-15T01:40:33.723Z,13.23
2017-03-15T01:41:39.382Z,14.62
2017-03-15T01:42:44.913Z,16.93
2017-03-15T01:43:50.528Z,17.08
2017-03-15T01:44:55.284Z,17.55
2017-03-15T01:46:01.639Z,15.98
2017-03-15T01:47:07.206Z,16.78
2017-03-15T01:48:11.999Z,17.03
2017-03-15T01:49:16.830Z,17.23
2017-03-15T01:50:22.405Z,16.78
2017-03-15T01:51:28.016Z,17.90
2017-03-15T01:52:33.590Z,19.45
2017-03-15T01:53:39.090Z,20.05
2017-03-15T01:54:43.854Z,20.35
2017-03-15T01:55:48.566Z,22.13
2017-03-15T01:56:53.191Z,20.48
2017-03-15T01:57:58.719Z,19.60
2017-03-15T01:59:03.403Z,19.13
2017-03-15T02:00:09.022Z,19.00
2017-03-15T02:01:15.351Z,20.53
2017-03-15T02:02:20.269Z,18.85
2017-03-15T02:03:25.759Z,19.75
2017-03-15T02:04:30.491Z,22.23
2017-03-15T02:05:36.684Z,20.93
2017-03-15T02:06:41.430Z,20.93
2017-03-15T02:07:47.074Z,21.37
2017-03-15T02:08:52.690Z,21.48
2017-03-15T02:09:58.046Z,22.95
2017-03-15T02:11:02.692Z,20.53
2017-03-15T02:12:08.246Z,19.95
2017-03-15T02:13:14.627Z,19.73
2017-03-15T02:14:19.386Z,18.62
2017-03-15T02:15:24.890Z,19.93
2017-03-15T02:16:31.130Z,18.92
2017-03-15T02:17:36.679Z,20.08
2017-03-15T02:18:41.500Z,22.78
2017-03-15T02:19:46.207Z,24.50
2017-03-15T02:20:51.701Z,20.98
2017-03-15T02:21:57.216Z,21.70
2017-03-15T02:23:03.514Z,22.43
2017-03-15T02:24:08.309Z,23.13
2017-03-15T02:25:12.963Z,22.95
2017-03-15T02:26:18.554Z,21.65
2017-03-15T02:27:23.230Z,23.27
2017-03-15T02:28:27.924Z,22.47
2017-03-15T02:29:34.301Z,21.27
2017-03-15T02:30:39.907Z,18.85
2017-03-15T02:31:47.485Z,21.13
2017-03-15T02:32:52.329Z,18.53
2017-03-15T02:33:57.146Z,16.57
2017-03-15T02:35:02.745Z,15.70
2017-03-15T02:36:09.106Z,14.85
2017-03-15T02:37:14.592Z,14.20
2017-03-15T02:38:20.222Z,14.03
2017-03-15T02:39:24.959Z,13.83
2017-03-15T02:40:30.538Z,13.33
2017-03-15T02:41:35.268Z,15.87
2017-03-15T02:42:39.886Z,16.65
2017-03-15T02:43:45.587Z,16.27
2017-03-15T02:44:51.194Z,16.30
2017-03-15T02:45:56.790Z,16.65
2017-03-15T02:47:02.302Z,16.17
2017-03-15T02:48:08.520Z,17.58
2017-03-15T02:49:13.500Z,19.32
2017-03-15T02:50:19.098Z,19.35
2017-03-15T02:51:23.839Z,18.20
2017-03-15T02:52:30.314Z,20.62
2017-03-15T02:53:35.060Z,21.13
2017-03-15T02:54:40.605Z,20.85
2017-03-15T02:55:45.261Z,20.88
2017-03-15T02:56:50.851Z,21.35
2017-03-15T02:57:56.511Z,21.72
2017-03-15T02:59:01.265Z,21.08
2017-03-15T03:00:06.038Z,20.48
2017-03-15T03:01:10.634Z,21.32
2017-03-15T03:02:15.550Z,21.33
2017-03-15T03:03:21.094Z,20.65
2017-03-15T03:04:26.566Z,20.83
2017-03-15T03:05:31.266Z,21.97
2017-03-15T03:06:36.156Z,23.00
2017-03-15T03:07:41.718Z,20.62
2017-03-15T03:08:47.199Z,21.25
2017-03-15T03:09:51.854Z,21.50
2017-03-15T03:10:56.558Z,20.18
2017-03-15T03:12:01.989Z,21.33
2017-03-15T03:13:07.642Z,19.67
2017-03-15T03:14:13.244Z,23.38
2017-03-15T03:15:18.651Z,21.55
2017-03-15T03:16:23.419Z,23.07
2017-03-15T03:17:28.842Z,23.73
2017-03-15T03:18:33.495Z,22.77
2017-03-15T03:19:39.011Z,25.23
2017-03-15T03:20:43.878Z,24.83
2017-03-15T03:21:49.430Z,22.38
2017-03-15T03:22:55.006Z,24.50
2017-03-15T03:23:59.612Z,24.05
2017-03-15T03:25:05.223Z,23.87
2017-03-15T03:26:10.738Z,27.72
2017-03-15T03:27:16.281Z,26.65
2017-03-15T03:28:21.839Z,25.63
2017-03-15T03:29:26.667Z,24.72
2017-03-15T03:30:32.296Z,26.82
2017-03-15T03:31:37.882Z,26.45
2017-03-15T03:32:43.445Z,28.20
2017-03-15T03:33:48.999Z,29.35
2017-03-15T03:34:53.639Z,34.72
2017-03-15T03:35:59.270Z,28.42
2017-03-15T03:37:05.527Z,29.68
2017-03-15T03:38:10.313Z,28.67
2017-03-15T03:39:16.710Z,29.98
2017-03-15T03:40:21.462Z,32.00
2017-03-15T03:41:27.091Z,31.50
2017-03-15T03:42:32.524Z,32.55
2017-03-15T03:43:37.344Z,29.92
2017-03-15T03:44:42.974Z,27.88
2017-03-15T03:45:48.517Z,28.17
2017-03-15T03:46:53.379Z,29.43
2017-03-15T03:47:58.920Z,30.22
2017-03-15T03:49:05.248Z,30.52
2017-03-15T03:50:10.103Z,32.13
2017-03-15T03:51:14.776Z,28.32
2017-03-15T03:52:21.250Z,26.87
2017-03-15T03:53:26.738Z,27.25
2017-03-15T03:54:32.497Z,25.65
2017-03-15T03:55:37.318Z,28.62
2017-03-15T03:56:42.914Z,26.42
2017-03-15T03:57:48.599Z,27.23
2017-03-15T03:58:53.282Z,25.58
2017-03-15T03:59:58.851Z,27.87
2017-03-15T04:01:03.678Z,27.23
2017-03-15T04:02:09.206Z,23.20
2017-03-15T04:03:15.375Z,21.53
2017-03-15T04:04:20.062Z,22.65
2017-03-15T04:05:25.538Z,21.93
2017-03-15T04:06:31.070Z,23.68
2017-03-15T04:07:35.738Z,24.67
2017-03-15T04:08:41.384Z,24.27
2017-03-15T04:09:46.865Z,27.13
2017-03-15T04:10:53.207Z,25.72
2017-03-15T04:11:58.047Z,24.63
2017-03-15T04:13:03.642Z,23.75
2017-03-15T04:14:08.391Z,26.15
2017-03-15T04:15:13.883Z,25.28
2017-03-15T04:16:19.302Z,23.40
2017-03-15T04:17:24.842Z,22.47
2017-03-15T04:18:29.552Z,23.20
2017-03-15T04:19:34.236Z,24.67
2017-03-15T04:20:40.604Z,23.70
2017-03-15T04:21:52.410Z,23.30
2017-03-15T04:22:57.778Z,23.22
2017-03-15T04:24:03.274Z,23.37
2017-03-15T04:25:08.774Z,22.70
2017-03-15T04:26:13.480Z,23.37
2017-03-15T04:27:18.920Z,23.90
2017-03-15T04:28:30.706Z,24.32
2017-03-15T04:29:35.378Z,22.27
2017-03-15T04:30:41.031Z,21.83
2017-03-15T04:31:46.594Z,22.67
2017-03-15T04:32:52.946Z,23.85
2017-03-15T04:33:57.729Z,23.42
2017-03-15T04:35:04.076Z,21.83
2017-03-15T04:36:08.854Z,22.03
2017-03-15T04:37:14.375Z,23.38
2017-03-15T04:38:19.823Z,22.60
2017-03-15T04:39:25.343Z,23.22
2017-03-15T04:40:30.883Z,23.48
2017-03-15T04:41:36.546Z,24.02
2017-03-15T04:42:41.247Z,23.35
2017-03-15T04:43:45.922Z,24.33
2017-03-15T04:44:51.565Z,21.47
2017-03-15T04:45:56.858Z,24.27
2017-03-15T04:47:02.882Z,24.58
2017-03-15T04:48:08.006Z,23.75
2017-03-15T04:49:13.511Z,24.25
2017-03-15T04:50:19.115Z,22.87
2017-03-15T04:51:24.695Z,23.75
2017-03-15T04:52:30.205Z,23.98
2017-03-15T04:53:35.796Z,23.48
2017-03-15T04:54:42.153Z,26.40
2017-03-15T04:55:47.725Z,25.12
2017-03-15T04:56:53.418Z,25.65
2017-03-15T04:57:58.286Z,26.85
2017-03-15T04:59:04.538Z,27.38
2017-03-15T05:00:10.203Z,26.67
2017-03-15T05:01:14.948Z,25.78
2017-03-15T05:02:21.266Z,27.35
2017-03-15T05:03:26.063Z,25.67
2017-03-15T05:04:32.379Z,24.95
2017-03-15T05:05:37.158Z,24.95
2017-03-15T05:06:41.840Z,25.43
2017-03-15T05:07:47.287Z,25.55
2017-03-15T05:08:52.031Z,25.20
2017-03-15T05:09:57.470Z,25.57
2017-03-15T05:11:02.105Z,28.15
2017-03-15T05:12:06.899Z,29.45
2017-03-15T05:13:12.440Z,28.53
2017-03-15T05:14:17.923Z,30.72
2017-03-15T05:15:23.487Z,29.42
2017-03-15T05:16:29.067Z,28.43
2017-03-15T05:17:33.768Z,28.28
2017-03-15T05:18:39.324Z,29.65
2017-03-15T05:19:45.868Z,30.28
2017-03-15T05:20:52.183Z,30.57
2017-03-15T05:21:57.248Z,31.22
2017-03-15T05:23:02.793Z,30.03
2017-03-15T05:24:16.677Z,30.82
2017-03-15T05:25:22.067Z,30.68
2017-03-15T05:26:27.610Z,30.23
2017-03-15T05:27:32.308Z,31.05
2017-03-15T05:28:37.902Z,30.40
2017-03-15T05:29:44.309Z,31.78
2017-03-15T05:30:49.366Z,29.50
2017-03-15T05:31:55.729Z,30.52
2017-03-15T05:33:01.306Z,30.65
2017-03-15T05:34:06.098Z,31.77
2017-03-15T05:35:10.765Z,31.75
2017-03-15T05:36:17.911Z,31.68
2017-03-15T05:37:22.961Z,31.78
2017-03-15T05:38:28.418Z,31.38
2017-03-15T05:39:34.011Z,30.75
2017-03-15T05:40:39.682Z,33.82
2017-03-15T05:41:44.830Z,32.65
2017-03-15T05:42:50.945Z,31.30
2017-03-15T05:43:56.520Z,33.80
2017-03-15T05:45:02.297Z,33.00
2017-03-15T05:46:07.325Z,32.90
2017-03-15T05:47:13.615Z,32.22
2017-03-15T05:48:19.299Z,32.22
2017-03-15T05:49:25.001Z,30.32
2017-03-15T05:50:30.085Z,28.87
2017-03-15T05:51:36.479Z,31.27
2017-03-15T05:52:41.313Z,31.60
2017-03-15T05:53:46.869Z,32.82
2017-03-15T05:54:52.799Z,31.27
2017-03-15T05:55:58.386Z,32.97
2017-03-15T05:57:04.758Z,32.30
2017-03-15T05:58:11.706Z,31.05
2017-03-15T05:59:17.297Z,31.57
2017-03-15T06:00:22.949Z,30.50
2017-03-15T06:01:28.581Z,31.33
2017-03-15T06:02:34.627Z,30.20
2017-03-15T06:03:40.783Z,30.97
2017-03-15T06:04:45.662Z,31.32
2017-03-15T06:05:50.699Z,35.05
2017-03-15T06:06:55.986Z,42.98
2017-03-15T06:08:00.641Z,42.12
2017-03-15T06:09:08.194Z,55.02
2017-03-15T06:10:13.734Z,68.02
2017-03-15T06:11:19.529Z,46.72
2017-03-15T06:12:24.185Z,45.02
2017-03-15T06:13:31.525Z,32.42
2017-03-15T06:14:37.558Z,29.08
2017-03-15T06:15:42.232Z,32.18
2017-03-15T06:16:49.802Z,33.98
2017-03-15T06:17:54.558Z,33.57
2017-03-15T06:18:59.987Z,35.62
2017-03-15T06:20:06.645Z,35.28
2017-03-15T06:21:12.198Z,36.80
2017-03-15T06:22:16.975Z,31.65
2017-03-15T06:23:22.539Z,34.18
2017-03-15T06:24:28.210Z,30.60
2017-03-15T06:25:33.808Z,30.80
2017-03-15T06:26:38.800Z,31.07
2017-03-15T06:27:45.122Z,31.65
2017-03-15T06:28:50.945Z,30.48
2017-03-15T06:29:56.518Z,31.13
2017-03-15T06:31:02.113Z,31.37
2017-03-15T06:32:07.841Z,32.33
2017-03-15T06:33:13.604Z,32.62
2017-03-15T06:34:18.507Z,34.40
2017-03-15T06:35:23.353Z,31.85
2017-03-15T06:36:28.957Z,34.73
2017-03-15T06:37:33.705Z,32.17
2017-03-15T06:38:39.338Z,32.67
2017-03-15T06:39:45.713Z,32.58
2017-03-15T06:40:50.475Z,31.12
2017-03-15T06:41:56.856Z,31.95
2017-03-15T06:43:02.493Z,30.05
2017-03-15T06:44:07.213Z,31.30
2017-03-15T06:45:12.056Z,31.02
2017-03-15T06:46:18.428Z,31.58
2017-03-15T06:47:23.357Z,32.13
2017-03-15T06:48:28.842Z,34.83
2017-03-15T06:49:33.613Z,36.13
2017-03-15T06:50:39.102Z,34.75
2017-03-15T06:51:44.737Z,35.82
2017-03-15T06:52:50.626Z,37.53
2017-03-15T06:53:56.115Z,31.88
2017-03-15T06:55:01.682Z,31.83
2017-03-15T06:56:07.203Z,34.33
2017-03-15T06:57:12.714Z,32.65
2017-03-15T06:58:18.342Z,41.27
2017-03-15T06:59:23.201Z,37.72
2017-03-15T07:00:28.857Z,40.83
2017-03-15T07:01:34.350Z,51.05
2017-03-15T07:02:43.208Z,42.48
2017-03-15T07:03:48.065Z,41.48
2017-03-15T07:04:53.545Z,42.48
2017-03-15T07:06:08.005Z,42.72
2017-03-15T07:07:14.957Z,41.42
2017-03-15T07:08:19.981Z,42.17
2017-03-15T07:09:25.641Z,40.97
2017-03-15T07:10:31.982Z,40.75
2017-03-15T07:11:36.910Z,39.08
2017-03-15T07:12:42.534Z,37.83
2017-03-15T07:13:48.986Z,36.47
2017-03-15T07:14:54.586Z,36.55
2017-03-15T07:15:59.325Z,36.97
2017-03-15T07:17:04.093Z,36.33
2017-03-15T07:18:08.717Z,36.25
2017-03-15T07:19:14.245Z,37.48
2017-03-15T07:20:20.681Z,37.28
2017-03-15T07:21:26.214Z,36.52
2017-03-15T07:22:31.077Z,38.70
2017-03-15T07:23:36.647Z,36.87
2017-03-15T07:24:41.422Z,36.47
2017-03-15T07:25:47.871Z,35.67
2017-03-15T07:26:53.489Z,35.50
2017-03-15T07:27:59.057Z,37.27
2017-03-15T07:29:03.916Z,37.30
2017-03-15T07:30:09.373Z,37.45
2017-03-15T07:31:14.849Z,35.93
2017-03-15T07:32:20.526Z,38.03
2017-03-15T07:33:26.124Z,39.40
2017-03-15T07:34:31.790Z,38.20
2017-03-15T07:35:36.655Z,37.13
2017-03-15T07:36:43.158Z,37.35
2017-03-15T07:37:48.657Z,37.53
2017-03-15T07:38:54.284Z,37.88
2017-03-15T07:39:59.080Z,37.82
2017-03-15T07:41:04.608Z,37.98
2017-03-15T07:42:09.432Z,38.18
2017-03-15T07:43:15.885Z,37.68
2017-03-15T07:44:20.638Z,38.53
2017-03-15T07:45:27.086Z,38.27
2017-03-15T07:46:32.634Z,38.63
2017-03-15T07:47:37.583Z,38.52
2017-03-15T07:48:42.258Z,39.60
2017-03-15T07:49:47.064Z,40.43
2017-03-15T07:50:52.617Z,40.70
2017-03-15T07:51:57.526Z,41.05
2017-03-15T07:53:02.268Z,42.87
2017-03-15T07:54:08.781Z,43.88
2017-03-15T07:55:14.402Z,41.37
2017-03-15T07:56:19.712Z,41.82
2017-03-15T07:57:24.652Z,43.98
2017-03-15T07:58:30.369Z,43.02
2017-03-15T07:59:36.542Z,41.97
2017-03-15T08:00:42.171Z,42.00
2017-03-15T08:01:46.953Z,40.10
2017-03-15T08:02:51.752Z,42.93
2017-03-15T08:03:57.250Z,42.80
2017-03-15T08:05:02.874Z,39.78
2017-03-15T08:06:08.546Z,42.18
2017-03-15T08:07:13.402Z,39.58
2017-03-15T08:08:18.078Z,40.47
2017-03-15T08:09:22.906Z,38.02
2017-03-15T08:10:29.220Z,39.48
2017-03-15T08:11:34.076Z,37.98
2017-03-15T08:13:55.417Z,40.88
2017-03-15T08:15:00.109Z,38.95
2017-03-15T08:16:05.545Z,40.58
2017-03-15T08:17:11.272Z,37.88
2017-03-15T08:18:17.686Z,40.80
2017-03-15T08:19:23.439Z,40.03
2017-03-15T08:20:30.266Z,40.50
2017-03-15T08:21:35.040Z,39.87
2017-03-15T08:22:46.022Z,40.95
2017-03-15T08:23:51.250Z,40.03
2017-03-15T08:24:56.581Z,40.32
2017-03-15T08:26:02.362Z,40.70
2017-03-15T08:27:07.943Z,36.68
2017-03-15T08:28:12.887Z,36.23
2017-03-15T08:29:18.405Z,35.87
2017-03-15T08:30:23.920Z,35.52
2017-03-15T08:31:29.616Z,36.08
2017-03-15T08:32:35.333Z,35.38
2017-03-15T08:33:40.117Z,36.28
2017-03-15T08:34:44.959Z,38.32
2017-03-15T08:35:49.787Z,37.27
2017-03-15T08:36:56.301Z,37.72
2017-03-15T08:38:01.117Z,39.35
2017-03-15T08:39:08.026Z,38.87
2017-03-15T08:40:12.824Z,41.45
2017-03-15T08:41:18.560Z,40.52
2017-03-15T08:42:25.479Z,39.02
2017-03-15T08:43:31.825Z,40.88
2017-03-15T08:44:36.814Z,39.62
2017-03-15T08:45:42.554Z,42.38
2017-03-15T08:46:48.080Z,42.13
2017-03-15T08:47:52.912Z,39.42
2017-03-15T08:48:58.457Z,39.40
2017-03-15T08:50:03.368Z,40.85
2017-03-15T08:51:08.052Z,41.77
2017-03-15T08:52:12.754Z,40.93
2017-03-15T08:53:17.753Z,38.20
2017-03-15T08:54:22.513Z,40.65
2017-03-15T08:55:28.901Z,43.15
2017-03-15T08:56:34.658Z,42.42
2017-03-15T08:57:40.384Z,42.33
2017-03-15T08:58:45.965Z,42.63
2017-03-15T08:59:50.677Z,43.53
2017-03-15T09:00:56.185Z,42.27
2017-03-15T09:02:01.066Z,44.68
2017-03-15T09:03:07.431Z,44.65
2017-03-15T09:04:13.358Z,42.83
2017-03-15T09:05:18.095Z,43.38
2017-03-15T09:06:23.541Z,40.12
2017-03-15T09:07:29.216Z,42.87
2017-03-15T09:08:34.938Z,40.15
2017-03-15T09:09:40.646Z,40.30
2017-03-15T09:10:46.489Z,42.22
2017-03-15T09:11:51.192Z,42.58
2017-03-15T09:12:56.654Z,41.42
2017-03-15T09:14:02.408Z,41.88
2017-03-15T09:15:08.178Z,43.32
2017-03-15T09:16:13.057Z,40.30
2017-03-15T09:17:18.793Z,41.17
2017-03-15T09:18:23.420Z,41.10
2017-03-15T09:19:28.997Z,39.55
2017-03-15T09:20:35.710Z,39.28
2017-03-15T09:21:40.464Z,39.08
2017-03-15T09:22:46.073Z,39.55
2017-03-15T09:23:52.098Z,39.88
2017-03-15T09:24:58.263Z,40.75
2017-03-15T09:26:03.042Z,38.92
2017-03-15T09:27:08.574Z,39.83
2017-03-15T09:28:14.888Z,40.45
2017-03-15T09:29:19.697Z,41.72
2017-03-15T09:30:24.409Z,42.37
2017-03-15T09:31:30.075Z,43.38
2017-03-15T09:32:34.926Z,42.28
2017-03-15T09:33:40.492Z,43.00
2017-03-15T09:34:45.957Z,40.35
2017-03-15T09:35:51.472Z,42.40
2017-03-15T09:36:57.173Z,40.40
2017-03-15T09:38:02.148Z,41.95
2017-03-15T09:39:07.690Z,40.33
2017-03-15T09:40:12.555Z,41.52
2017-03-15T09:41:18.149Z,41.85
2017-03-15T09:42:23.750Z,44.30
2017-03-15T09:43:28.834Z,41.60
2017-03-15T09:44:33.574Z,42.70
2017-03-15T09:45:38.355Z,43.67
2017-03-15T09:46:43.862Z,42.18
2017-03-15T09:47:49.602Z,41.50
2017-03-15T09:48:55.269Z,40.60
2017-03-15T09:50:00.260Z,42.13
2017-03-15T09:51:04.997Z,40.72
2017-03-15T09:52:10.485Z,42.17
2017-03-15T09:53:16.157Z,44.28
2017-03-15T09:54:20.943Z,43.35
2017-03-15T09:55:25.720Z,45.30
2017-03-15T09:56:30.674Z,42.40
2017-03-15T09:57:36.225Z,43.15
2017-03-15T09:58:40.944Z,44.88
2017-03-15T09:59:46.364Z,42.72
2017-03-15T10:00:51.968Z,44.37
2017-03-15T10:01:56.765Z,43.47
2017-03-15T10:03:03.142Z,48.58
2017-03-15T10:04:08.110Z,44.08
2017-03-15T10:05:13.537Z,44.45
2017-03-15T10:06:19.381Z,44.82
2017-03-15T10:07:24.233Z,43.25
2017-03-15T10:08:28.909Z,43.52
2017-03-15T10:09:33.728Z,46.30
2017-03-15T10:10:39.308Z,42.70
2017-03-15T10:11:44.366Z,42.05
2017-03-15T10:12:50.042Z,43.70
2017-03-15T10:13:55.606Z,41.63
2017-03-15T10:15:00.380Z,40.93
2017-03-15T10:16:05.460Z,41.77
2017-03-15T10:17:10.757Z,42.08
2017-03-15T10:18:16.676Z,41.22
2017-03-15T10:19:22.182Z,40.48
2017-03-15T10:20:29.585Z,42.72
2017-03-15T10:21:35.141Z,41.80
2017-03-15T10:22:39.905Z,40.83
2017-03-15T10:23:45.465Z,41.97
2017-03-15T10:24:50.320Z,42.48
2017-03-15T10:25:55.905Z,42.53
2017-03-15T10:27:01.553Z,42.92
2017-03-15T10:28:07.193Z,40.72
2017-03-15T10:29:12.140Z,41.55
2017-03-15T10:30:17.533Z,39.95
2017-03-15T10:31:22.388Z,41.58
2017-03-15T10:32:27.225Z,40.10
2017-03-15T10:33:32.737Z,42.00
2017-03-15T10:34:37.673Z,40.33
2017-03-15T10:35:43.250Z,38.97
2017-03-15T10:36:49.474Z,39.07
2017-03-15T10:37:54.457Z,39.65
2017-03-15T10:39:34.962Z,39.67
2017-03-15T10:40:40.856Z,38.73
2017-03-15T10:41:46.144Z,39.72
2017-03-15T10:42:51.688Z,38.62
2017-03-15T10:43:56.358Z,41.32
2017-03-15T10:45:01.137Z,38.35
2017-03-15T10:46:06.754Z,40.37
2017-03-15T10:47:13.129Z,40.48
2017-03-15T10:48:18.768Z,37.98
2017-03-15T10:49:23.556Z,39.92
2017-03-15T10:50:29.082Z,36.93
2017-03-15T10:51:33.770Z,39.63
2017-03-15T10:52:40.173Z,36.77
2017-03-15T10:53:46.765Z,38.13
2017-03-15T10:54:52.451Z,36.85
2017-03-15T10:55:57.277Z,37.17
2017-03-15T10:57:02.824Z,39.90
2017-03-15T10:58:07.613Z,37.32
2017-03-15T10:59:12.280Z,38.22
2017-03-15T11:00:17.753Z,37.33
2017-03-15T11:01:22.536Z,36.47
2017-03-15T11:02:28.089Z,34.58
2017-03-15T11:03:33.702Z,34.80
2017-03-15T11:04:39.393Z,32.98
2017-03-15T11:05:44.909Z,34.58
2017-03-15T11:06:49.566Z,35.13
2017-03-15T11:07:54.996Z,35.73
2017-03-15T11:09:00.157Z,33.50
2017-03-15T11:10:06.237Z,31.38
2017-03-15T11:11:10.961Z,32.45
2017-03-15T11:12:17.308Z,33.78
2017-03-15T11:13:22.069Z,32.03
2017-03-15T11:14:27.793Z,31.90
2017-03-15T11:15:33.433Z,34.05
2017-03-15T11:16:38.300Z,32.02
2017-03-15T11:17:43.073Z,32.93
2017-03-15T11:18:49.420Z,31.62
2017-03-15T11:19:54.993Z,32.98
2017-03-15T11:20:59.886Z,32.45
2017-03-15T11:22:05.437Z,33.00
2017-03-15T11:23:10.888Z,32.65
2017-03-15T11:24:15.701Z,33.63
2017-03-15T11:25:20.409Z,33.85
2017-03-15T11:26:25.261Z,34.07
2017-03-15T11:27:30.014Z,33.12
2017-03-15T11:28:35.705Z,33.27
2017-03-15T11:29:41.341Z,32.33
2017-03-15T11:30:46.761Z,32.87
2017-03-15T11:31:51.574Z,33.78
2017-03-15T11:32:57.916Z,33.95
2017-03-15T11:34:03.189Z,34.03
2017-03-15T11:35:08.541Z,33.00
2017-03-15T11:36:13.144Z,34.00
2017-03-15T11:37:20.617Z,33.70
2017-03-15T11:38:26.339Z,33.92
2017-03-15T11:39:31.848Z,33.58
2017-03-15T11:40:37.493Z,36.18
2017-03-15T11:41:43.245Z,36.02
2017-03-15T11:42:51.005Z,34.77
2017-03-15T11:43:56.589Z,33.83
2017-03-15T11:45:02.958Z,34.50
2017-03-15T11:46:07.733Z,32.97
2017-03-15T11:47:13.308Z,34.27
2017-03-15T11:48:19.068Z,34.22
2017-03-15T11:49:24.093Z,33.97
2017-03-15T11:50:30.261Z,34.10
2017-03-15T11:51:35.210Z,33.90
2017-03-15T11:52:40.845Z,32.92
2017-03-15T11:53:46.562Z,33.60
2017-03-15T11:54:52.015Z,32.98
2017-03-15T11:55:56.807Z,32.95
2017-03-15T11:57:03.228Z,31.95
2017-03-15T11:58:07.941Z,33.25
2017-03-15T11:59:12.748Z,33.65
2017-03-15T12:00:19.117Z,32.67
2017-03-15T12:01:24.779Z,33.00
2017-03-15T12:02:30.474Z,31.80
2017-03-15T12:03:36.209Z,30.88
2017-03-15T12:04:41.132Z,31.35
2017-03-15T12:05:47.488Z,33.30
2017-03-15T12:06:53.805Z,32.20
2017-03-15T12:07:59.410Z,31.08
2017-03-15T12:09:04.436Z,32.77
2017-03-15T12:10:10.721Z,31.93
2017-03-15T12:11:15.464Z,32.30
2017-03-15T12:12:20.340Z,33.47
2017-03-15T12:13:25.896Z,32.15
2017-03-15T12:14:32.191Z,31.32
2017-03-15T12:15:37.505Z,32.25
2017-03-15T12:16:43.069Z,30.90
2017-03-15T12:17:48.502Z,30.30
2017-03-15T12:18:53.865Z,32.88
2017-03-15T12:20:02.337Z,30.08
2017-03-15T12:21:08.245Z,30.88
2017-03-15T12:22:12.907Z,32.95
2017-03-15T12:23:18.364Z,30.70
2017-03-15T12:24:23.216Z,31.08
2017-03-15T12:25:27.864Z,31.73
2017-03-15T12:26:33.341Z,30.45
2017-03-15T12:27:38.936Z,30.08
2017-03-15T12:28:44.698Z,30.40
2017-03-15T12:29:50.312Z,29.88
2017-03-15T12:30:55.948Z,31.47
2017-03-15T12:32:01.637Z,27.12
2017-03-15T12:33:06.585Z,26.53
2017-03-15T12:34:12.054Z,29.43
2017-03-15T12:35:16.916Z,27.98
2017-03-15T12:36:22.673Z,27.15
2017-03-15T12:37:28.284Z,24.42
2017-03-15T12:38:33.065Z,23.53
2017-03-15T12:39:38.489Z,21.43
2017-03-15T12:40:44.073Z,23.22
2017-03-15T12:41:49.567Z,22.17
2017-03-15T12:42:55.253Z,24.65
2017-03-15T12:44:00.125Z,22.83
2017-03-15T12:45:06.433Z,22.27
2017-03-15T12:46:11.270Z,21.95
2017-03-15T12:47:17.377Z,21.67
2017-03-15T12:48:22.832Z,24.20
2017-03-15T12:49:29.253Z,23.92
2017-03-15T12:50:36.377Z,24.20
2017-03-15T12:51:41.764Z,24.62
2017-03-15T12:52:47.128Z,25.50
2017-03-15T12:53:52.048Z,23.58
2017-03-15T12:54:59.917Z,24.10
2017-03-15T12:56:05.993Z,25.38
2017-03-15T12:57:11.025Z,24.05
2017-03-15T12:58:16.601Z,23.28
2017-03-15T12:59:22.177Z,22.80
2017-03-15T13:00:27.888Z,25.58
2017-03-15T13:01:33.440Z,24.23
2017-03-15T13:02:39.110Z,25.70
2017-03-15T13:03:44.093Z,23.53
2017-03-15T13:04:50.621Z,26.23
2017-03-15T13:05:55.461Z,23.08
2017-03-15T13:07:01.149Z,24.13
2017-03-15T13:08:06.788Z,22.27
2017-03-15T13:09:12.336Z,23.57
2017-03-15T13:10:17.328Z,23.08
2017-03-15T13:11:22.905Z,23.85
2017-03-15T13:12:27.561Z,23.28
2017-03-15T13:13:33.076Z,24.77
2017-03-15T13:14:37.799Z,23.62
2017-03-15T13:15:42.549Z,22.00
2017-03-15T13:16:48.889Z,23.67
2017-03-15T13:17:53.668Z,24.23
2017-03-15T13:19:01.230Z,22.83
2017-03-15T13:20:06.761Z,19.85
2017-03-15T13:21:14.117Z,21.83
2017-03-15T13:22:18.973Z,21.83
2017-03-15T13:23:23.620Z,21.98
2017-03-15T13:24:29.201Z,23.60
2017-03-15T13:25:34.717Z,22.60
2017-03-15T13:26:40.285Z,22.03
2017-03-15T13:27:45.914Z,22.88
2017-03-15T13:28:51.444Z,22.03
2017-03-15T13:29:56.285Z,22.80
2017-03-15T13:31:02.590Z,21.80
2017-03-15T13:32:07.728Z,20.57
2017-03-15T13:33:13.140Z,23.55
2017-03-15T13:34:19.525Z,24.98
2017-03-15T13:35:25.100Z,24.57
2017-03-15T13:36:30.590Z,24.22
2017-03-15T13:37:36.280Z,24.35
2017-03-15T13:38:41.393Z,23.88
2017-03-15T13:39:47.412Z,23.78
2017-03-15T13:40:53.132Z,23.25
2017-03-15T13:41:57.861Z,23.15
2017-03-15T13:43:03.431Z,25.13
2017-03-15T13:44:08.404Z,22.23
2017-03-15T13:45:13.846Z,22.53
2017-03-15T13:46:19.618Z,21.50
2017-03-15T13:47:24.593Z,21.53
2017-03-15T13:48:29.288Z,21.82
2017-03-15T13:49:35.656Z,20.87
2017-03-15T13:50:40.502Z,22.43
2017-03-15T13:51:45.201Z,22.20
2017-03-15T13:52:51.688Z,22.37
2017-03-15T13:53:56.449Z,21.93
2017-03-15T13:55:02.773Z,21.25
2017-03-15T13:56:08.461Z,19.92
2017-03-15T13:57:13.372Z,20.85
2017-03-15T13:58:18.041Z,20.92
2017-03-15T13:59:23.670Z,21.30
2017-03-15T14:00:28.377Z,19.98
2017-03-15T14:01:33.848Z,19.32
2017-03-15T14:02:38.657Z,21.58
2017-03-15T14:03:44.177Z,22.03
2017-03-15T14:04:49.754Z,21.68